Neptune Avra — 9HKH6 — position and weather

sailwx.info

Track history (hours):
 
Tides and Currents Weather Stations Pressure Air Temp Water Temp Dewpoint Dewpoint Depression Visibility Wind Speed Wind Dir Waves Ship Positions

Neptune Avra

Last reported at 2014-Dec-20 04:19 UTC. Time now 2014-Dec-20 05:55 UTC.
Position N 39°43' E 001°20'.

Length 155 m; draft 6.3 m.

Type: Cargo ship. MMSI: 248598000.

Date/timePositionNaut miles runAvg speedWind from/ knotsBaromVisibWave heightAir tempDewpointWater temp
2014-Dec-20 04:19N 39°43' E 001°20'1317.3
2014-Dec-20 03:33N 39°53' E 001°31'1717.4
2014-Dec-20 02:33N 40°07' E 001°45'1717.2
2014-Dec-20 01:33N 40°21' E 001°58'1717.4
2014-Dec-20 00:33N 40°35' E 002°11'1717.3
2014-Dec-19 23:33N 40°50' E 002°23'1817.3
2014-Dec-19 22:32N 41°05' E 002°35'13116.4
2014-Dec-19 14:34N 42°47' E 004°25'2017.0
2014-Dec-19 13:23N 43°03' E 004°41'1417.0
2014-Dec-19 12:34N 43°14' E 004°53'1010.0
2014-Dec-19 11:33N 43°24' E 004°52'0 0.5
2014-Dec-19 10:33N 43°24' E 004°51'0 0.0
2014-Dec-19 09:33N 43°24' E 004°51'0 0.0
2014-Dec-19 08:33N 43°24' E 004°51'0 0.0
2014-Dec-19 07:33N 43°24' E 004°51'0 0.0
2014-Dec-19 06:33N 43°24' E 004°51'0 0.0
2014-Dec-19 05:33N 43°24' E 004°51'0 0.0
2014-Dec-19 04:33N 43°24' E 004°51'0 0.0
2014-Dec-19 03:33N 43°24' E 004°51'0 0.0
2014-Dec-19 02:33N 43°24' E 004°51'1 1.4
2014-Dec-19 01:34N 43°24' E 004°53'8 8.4
2014-Dec-19 00:33N 43°18' E 005°00'1414.0
2014-Dec-18 23:33N 43°04' E 004°56'1918.6
2014-Dec-18 22:33N 42°51' E 004°37'1817.7
2014-Dec-18 21:33N 42°38' E 004°21'1717.0
2014-Dec-18 20:33N 42°25' E 004°05'1716.8
2014-Dec-18 19:33N 42°13' E 003°50'1817.8
2014-Dec-18 18:34N 41°60' E 003°34'1918.8
2014-Dec-18 17:33N 41°47' E 003°15'2020.1
2014-Dec-18 16:33N 41°36' E 002°53'1919.7
2014-Dec-18 15:33N 41°26' E 002°31'1817.4
2014-Dec-18 14:33N 41°17' E 002°11'3 1.7
2014-Dec-18 12:27N 41°20' E 002°09'0 0.0
2014-Dec-18 06:12N 41°20' E 002°09'0 0.1
2014-Dec-18 05:32N 41°20' E 002°09'4 4.0
2014-Dec-18 04:29N 41°16' E 002°12'1112.5
2014-Dec-18 03:33N 41°06' E 002°04'1817.6
2014-Dec-18 02:33N 40°50' E 001°55'1616.3
2014-Dec-18 01:33N 40°36' E 001°45'1716.8
2014-Dec-18 00:33N 40°21' E 001°36'1716.6
2014-Dec-17 23:33N 40°06' E 001°24'1717.2
2014-Dec-17 22:34N 39°51' E 001°14'3717.6
2014-Dec-17 20:29N 39°19' E 000°52'2318.0
2014-Dec-17 19:13N 38°59' E 000°39'8917.7
2014-Dec-17 14:12N 37°43' W 000°22'2916.7
2014-Dec-17 12:28N 37°22' W 000°47'22716.3
2014-Dec-16 22:33N 36°01' W 005°11'1714.2
2014-Dec-16 21:23N 35°54' W 005°30'3 0.2
2014-Dec-16 04:31N 35°56' W 005°29'9 9.7
2014-Dec-16 03:33N 36°01' W 005°19'8 0.3
2014-Dec-15 00:32N 36°04' W 005°10'1515.5
2014-Dec-14 23:33N 35°57' W 005°27'4 0.4
2014-Dec-14 12:08N 35°54' W 005°30'4 2.7
2014-Dec-14 10:30N 35°58' W 005°31'1112.0
2014-Dec-14 09:33N 36°01' W 005°17'21714.4
2014-Dec-13 18:33N 37°14' W 001°03'1615.9
2014-Dec-13 17:33N 37°24' W 000°48'1615.3
2014-Dec-13 16:32N 37°35' W 000°34'1515.4
2014-Dec-13 15:33N 37°47' W 000°23'11015.1
2014-Dec-13 08:16N 39°18' E 000°57'1014.6
2014-Dec-13 07:33N 39°26' E 001°05'1914.6
2014-Dec-13 06:16N 39°41' E 001°20'1014.3
2014-Dec-13 05:33N 39°50' E 001°28'1414.4
2014-Dec-13 04:33N 40°01' E 001°39'1414.2
2014-Dec-13 03:33N 40°13' E 001°50'1414.4
2014-Dec-13 02:33N 40°24' E 002°01'1414.3
2014-Dec-13 01:33N 40°35' E 002°13'1514.5
2014-Dec-13 00:33N 40°47' E 002°24'1414.4
2014-Dec-12 23:33N 40°59' E 002°35'4615.1
2014-Dec-12 20:30N 41°35' E 003°13'1515.0
2014-Dec-12 19:30N 41°47' E 003°24'1613.8
2014-Dec-12 18:22N 41°60' E 003°37'3014.5
2014-Dec-12 16:20N 42°24' E 004°01'1215.1
2014-Dec-12 15:33N 42°33' E 004°11'3114.8
2014-Dec-12 13:26N 42°58' E 004°37'1314.1
2014-Dec-12 12:31N 43°08' E 004°47'1314.2
2014-Dec-12 11:34N 43°20' E 004°57'6 6.0
2014-Dec-12 10:32N 43°24' E 004°51'0 0.0
2014-Dec-12 09:32N 43°24' E 004°51'0 0.0
2014-Dec-12 08:32N 43°24' E 004°51'0 0.0
2014-Dec-12 07:32N 43°24' E 004°51'0 0.0
2014-Dec-12 06:32N 43°24' E 004°51'0 0.0
2014-Dec-12 05:32N 43°24' E 004°51'0 0.0
2014-Dec-12 04:32N 43°24' E 004°51'2 2.3
2014-Dec-12 03:33N 43°24' E 004°54'8 8.4
2014-Dec-12 02:34N 43°17' E 005°00'1010.5
2014-Dec-12 01:33N 43°07' E 004°57'1514.5
2014-Dec-12 00:33N 42°56' E 004°44'2015.4
2014-Dec-11 23:14N 42°41' E 004°25'2615.3
2014-Dec-11 21:33N 42°22' E 004°01'1515.0
2014-Dec-11 20:33N 42°11' E 003°48'1414.1
2014-Dec-11 19:33N 42°01' E 003°35'1813.8
2014-Dec-11 18:14N 41°49' E 003°17'3215.1
2014-Dec-11 16:07N 41°30' E 002°41'1014.9
2014-Dec-11 15:25N 41°25' E 002°29'16 2.0
2014-Dec-11 07:23N 41°20' E 002°09'0 0.0
2014-Dec-11 06:17N 41°20' E 002°09'1 0.5
2014-Dec-11 04:13N 41°20' E 002°10'5 6.1
2014-Dec-11 03:24N 41°15' E 002°11'1213.9
2014-Dec-11 02:31N 41°04' E 002°03'1313.6
2014-Dec-11 01:33N 40°52' E 001°55'1413.7
2014-Dec-11 00:34N 40°40' E 001°47'1413.7
2014-Dec-10 23:33N 40°28' E 001°39'1414.1
2014-Dec-10 22:33N 40°15' E 001°30'1514.5
2014-Dec-10 21:33N 40°03' E 001°21'1414.1
2014-Dec-10 20:33N 39°50' E 001°13'14714.6
2014-Dec-10 10:28N 37°43' W 000°22'2612.8
2014-Dec-10 08:28N 37°24' W 000°44'  
Track history (hours):
 
Tides and Currents Weather Stations Pressure Air Temp Water Temp Dewpoint Dewpoint Depression Visibility Wind Speed Wind Dir Waves Ship Positions

Neptune Avra

Last reported at 2014-Dec-20 04:19 UTC. Time now 2014-Dec-20 05:55 UTC.
Position N 39°43' E 001°20'.

Length 155 m; draft 6.3 m.

Type: Cargo ship. MMSI: 248598000.

Date/timePositionNaut miles runAvg speedWind from/ knotsBaromVisibWave heightAir tempDewpointWater temp
2014-Dec-20 04:19N 39°43' E 001°20'1317.3
2014-Dec-20 03:33N 39°53' E 001°31'1717.4
2014-Dec-20 02:33N 40°07' E 001°45'1717.2
2014-Dec-20 01:33N 40°21' E 001°58'1717.4
2014-Dec-20 00:33N 40°35' E 002°11'1717.3
2014-Dec-19 23:33N 40°50' E 002°23'1817.3
2014-Dec-19 22:32N 41°05' E 002°35'13116.4
2014-Dec-19 14:34N 42°47' E 004°25'2017.0
2014-Dec-19 13:23N 43°03' E 004°41'1417.0
2014-Dec-19 12:34N 43°14' E 004°53'1010.0
2014-Dec-19 11:33N 43°24' E 004°52'0 0.5
2014-Dec-19 10:33N 43°24' E 004°51'0 0.0
2014-Dec-19 09:33N 43°24' E 004°51'0 0.0
2014-Dec-19 08:33N 43°24' E 004°51'0 0.0
2014-Dec-19 07:33N 43°24' E 004°51'0 0.0
2014-Dec-19 06:33N 43°24' E 004°51'0 0.0
2014-Dec-19 05:33N 43°24' E 004°51'0 0.0
2014-Dec-19 04:33N 43°24' E 004°51'0 0.0
2014-Dec-19 03:33N 43°24' E 004°51'0 0.0
2014-Dec-19 02:33N 43°24' E 004°51'1 1.4
2014-Dec-19 01:34N 43°24' E 004°53'8 8.4
2014-Dec-19 00:33N 43°18' E 005°00'1414.0
2014-Dec-18 23:33N 43°04' E 004°56'1918.6
2014-Dec-18 22:33N 42°51' E 004°37'1817.7
2014-Dec-18 21:33N 42°38' E 004°21'1717.0
2014-Dec-18 20:33N 42°25' E 004°05'1716.8
2014-Dec-18 19:33N 42°13' E 003°50'1817.8
2014-Dec-18 18:34N 41°60' E 003°34'1918.8
2014-Dec-18 17:33N 41°47' E 003°15'2020.1
2014-Dec-18 16:33N 41°36' E 002°53'1919.7
2014-Dec-18 15:33N 41°26' E 002°31'1817.4
2014-Dec-18 14:33N 41°17' E 002°11'3 1.7
2014-Dec-18 12:27N 41°20' E 002°09'0 0.0
2014-Dec-18 06:12N 41°20' E 002°09'0 0.1
2014-Dec-18 05:32N 41°20' E 002°09'4 4.0
2014-Dec-18 04:29N 41°16' E 002°12'1112.5
2014-Dec-18 03:33N 41°06' E 002°04'1817.6
2014-Dec-18 02:33N 40°50' E 001°55'1616.3
2014-Dec-18 01:33N 40°36' E 001°45'1716.8
2014-Dec-18 00:33N 40°21' E 001°36'1716.6
2014-Dec-17 23:33N 40°06' E 001°24'1717.2
2014-Dec-17 22:34N 39°51' E 001°14'3717.6
2014-Dec-17 20:29N 39°19' E 000°52'2318.0
2014-Dec-17 19:13N 38°59' E 000°39'8917.7
2014-Dec-17 14:12N 37°43' W 000°22'2916.7
2014-Dec-17 12:28N 37°22' W 000°47'22716.3
2014-Dec-16 22:33N 36°01' W 005°11'1714.2
2014-Dec-16 21:23N 35°54' W 005°30'3 0.2
2014-Dec-16 04:31N 35°56' W 005°29'9 9.7
2014-Dec-16 03:33N 36°01' W 005°19'8 0.3
2014-Dec-15 00:32N 36°04' W 005°10'1515.5
2014-Dec-14 23:33N 35°57' W 005°27'4 0.4
2014-Dec-14 12:08N 35°54' W 005°30'4 2.7
2014-Dec-14 10:30N 35°58' W 005°31'1112.0
2014-Dec-14 09:33N 36°01' W 005°17'21714.4
2014-Dec-13 18:33N 37°14' W 001°03'1615.9
2014-Dec-13 17:33N 37°24' W 000°48'1615.3
2014-Dec-13 16:32N 37°35' W 000°34'1515.4
2014-Dec-13 15:33N 37°47' W 000°23'11015.1
2014-Dec-13 08:16N 39°18' E 000°57'1014.6
2014-Dec-13 07:33N 39°26' E 001°05'1914.6
2014-Dec-13 06:16N 39°41' E 001°20'1014.3
2014-Dec-13 05:33N 39°50' E 001°28'1414.4
2014-Dec-13 04:33N 40°01' E 001°39'1414.2
2014-Dec-13 03:33N 40°13' E 001°50'1414.4
2014-Dec-13 02:33N 40°24' E 002°01'1414.3
2014-Dec-13 01:33N 40°35' E 002°13'1514.5
2014-Dec-13 00:33N 40°47' E 002°24'1414.4
2014-Dec-12 23:33N 40°59' E 002°35'4615.1
2014-Dec-12 20:30N 41°35' E 003°13'1515.0
2014-Dec-12 19:30N 41°47' E 003°24'1613.8
2014-Dec-12 18:22N 41°60' E 003°37'3014.5
2014-Dec-12 16:20N 42°24' E 004°01'1215.1
2014-Dec-12 15:33N 42°33' E 004°11'3114.8
2014-Dec-12 13:26N 42°58' E 004°37'1314.1
2014-Dec-12 12:31N 43°08' E 004°47'1314.2
2014-Dec-12 11:34N 43°20' E 004°57'6 6.0
2014-Dec-12 10:32N 43°24' E 004°51'0 0.0
2014-Dec-12 09:32N 43°24' E 004°51'0 0.0
2014-Dec-12 08:32N 43°24' E 004°51'0 0.0
2014-Dec-12 07:32N 43°24' E 004°51'0 0.0
2014-Dec-12 06:32N 43°24' E 004°51'0 0.0
2014-Dec-12 05:32N 43°24' E 004°51'0 0.0
2014-Dec-12 04:32N 43°24' E 004°51'2 2.3
2014-Dec-12 03:33N 43°24' E 004°54'8 8.4
2014-Dec-12 02:34N 43°17' E 005°00'1010.5
2014-Dec-12 01:33N 43°07' E 004°57'1514.5
2014-Dec-12 00:33N 42°56' E 004°44'2015.4
2014-Dec-11 23:14N 42°41' E 004°25'2615.3
2014-Dec-11 21:33N 42°22' E 004°01'1515.0
2014-Dec-11 20:33N 42°11' E 003°48'1414.1
2014-Dec-11 19:33N 42°01' E 003°35'1813.8
2014-Dec-11 18:14N 41°49' E 003°17'3215.1
2014-Dec-11 16:07N 41°30' E 002°41'1014.9
2014-Dec-11 15:25N 41°25' E 002°29'16 2.0
2014-Dec-11 07:23N 41°20' E 002°09'0 0.0
2014-Dec-11 06:17N 41°20' E 002°09'1 0.5
2014-Dec-11 04:13N 41°20' E 002°10'5 6.1
2014-Dec-11 03:24N 41°15' E 002°11'1213.9
2014-Dec-11 02:31N 41°04' E 002°03'1313.6
2014-Dec-11 01:33N 40°52' E 001°55'1413.7
2014-Dec-11 00:34N 40°40' E 001°47'1413.7
2014-Dec-10 23:33N 40°28' E 001°39'1414.1
2014-Dec-10 22:33N 40°15' E 001°30'1514.5
2014-Dec-10 21:33N 40°03' E 001°21'1414.1
2014-Dec-10 20:33N 39°50' E 001°13'14714.6
2014-Dec-10 10:28N 37°43' W 000°22'2612.8
2014-Dec-10 08:28N 37°24' W 000°44'  

Dump ship's entire track history